createdAt,value
2022-09-02T00:01:44.842Z,92.30
2022-09-02T00:04:21.704Z,88.40
2022-09-02T00:06:52.600Z,89.30
2022-09-02T00:09:24.641Z,89.10
2022-09-02T00:11:53.998Z,92.30
2022-09-02T00:14:28.848Z,90.00
2022-09-02T00:16:56.554Z,93.10
2022-09-02T00:19:26.803Z,90.50
2022-09-02T00:21:56.574Z,93.10
2022-09-02T00:24:25.095Z,90.60
2022-09-02T00:26:56.366Z,93.60
2022-09-02T00:29:26.783Z,94.20
2022-09-02T00:31:54.707Z,93.90
2022-09-02T00:34:22.069Z,94.90
2022-09-02T00:39:17.477Z,95.50
2022-09-02T00:41:45.698Z,92.50
2022-09-02T00:44:18.477Z,95.70
2022-09-02T00:46:46.722Z,93.00
2022-09-02T00:49:30.064Z,93.60
2022-09-02T00:52:12.992Z,96.70
2022-09-02T00:54:48.025Z,94.30
2022-09-02T00:57:19.812Z,97.90
2022-09-02T00:59:58.674Z,97.50
2022-09-02T01:02:29.062Z,97.30
2022-09-02T01:07:28.819Z,97.20
2022-09-02T01:09:57.575Z,97.10
2022-09-02T01:12:26.340Z,94.40
2022-09-02T01:14:53.975Z,97.70
2022-09-02T01:19:57.120Z,97.30
2022-09-02T01:22:28.669Z,97.40
2022-09-02T01:25:03.974Z,97.50
2022-09-02T01:30:01.076Z,98.20
2022-09-02T01:32:30.384Z,95.00
2022-09-02T01:34:58.150Z,98.70
2022-09-02T01:39:53.832Z,95.20
2022-09-02T01:42:21.652Z,95.20
2022-09-02T01:44:49.061Z,98.40
2022-09-02T01:47:26.991Z,98.90
2022-09-02T01:49:54.554Z,96.00
2022-09-02T01:52:24.525Z,99.90
2022-09-02T01:54:52.682Z,96.20
2022-09-02T01:57:20.546Z,99.90
2022-09-02T02:02:16.130Z,99.90
2022-09-02T02:07:15.464Z,97.10
2022-09-02T02:09:43.460Z,99.90
2022-09-02T02:14:38.215Z,99.90
2022-09-02T02:19:34.769Z,97.10
2022-09-02T02:24:29.719Z,98.00
2022-09-02T02:29:24.770Z,99.90
2022-09-02T02:34:19.774Z,99.80
2022-09-02T02:39:14.897Z,99.90
2022-09-02T02:44:12.532Z,99.90
2022-09-02T02:46:39.794Z,99.90
2022-09-02T02:49:07.852Z,99.90
2022-09-02T02:56:32.361Z,99.90
2022-09-02T02:59:03.287Z,98.60
2022-09-02T03:01:32.193Z,99.90
2022-09-02T03:03:59.826Z,99.90
2022-09-02T03:06:27.004Z,99.90
2022-09-02T03:08:54.536Z,99.90
2022-09-02T03:11:28.564Z,99.90
2022-09-02T03:23:47.871Z,99.90
2022-09-02T03:26:26.011Z,99.90
2022-09-02T03:28:57.072Z,99.90
2022-09-02T03:31:27.112Z,99.90
2022-09-02T03:33:54.993Z,99.90
2022-09-02T03:36:30.338Z,99.90
2022-09-02T03:39:00.032Z,99.90
2022-09-02T03:43:54.980Z,99.90
2022-09-02T03:51:21.803Z,99.90
2022-09-02T03:53:49.716Z,99.90
2022-09-02T03:56:18.018Z,99.90
2022-09-02T03:58:48.603Z,99.90
2022-09-02T04:01:24.052Z,99.90
2022-09-02T04:03:53.861Z,99.90
2022-09-02T04:06:25.166Z,99.90
2022-09-02T04:11:23.773Z,99.90
2022-09-02T04:13:54.068Z,99.90
2022-09-02T04:16:29.238Z,99.90
2022-09-02T04:18:59.708Z,99.90
2022-09-02T04:23:54.582Z,99.90
2022-09-02T04:26:23.089Z,99.90
2022-09-02T04:28:51.704Z,99.90
2022-09-02T04:31:22.636Z,99.90
2022-09-02T04:36:20.194Z,99.90
2022-09-02T04:38:47.855Z,99.90
2022-09-02T04:41:21.196Z,99.90
2022-09-02T04:43:49.303Z,99.90
2022-09-02T04:46:17.406Z,99.90
2022-09-02T04:48:45.608Z,99.90
2022-09-02T04:51:20.952Z,99.90
2022-09-02T04:53:50.498Z,99.90
2022-09-02T04:56:23.857Z,99.90
2022-09-02T05:01:24.925Z,99.90
2022-09-02T05:03:54.136Z,99.90
2022-09-02T05:06:28.589Z,99.10
2022-09-02T05:09:00.531Z,94.70
2022-09-02T05:11:31.788Z,92.70
2022-09-02T05:14:06.777Z,88.60
2022-09-02T05:16:38.567Z,83.10
2022-09-02T05:19:09.752Z,86.70
2022-09-02T05:21:44.982Z,79.20
2022-09-02T05:31:41.828Z,77.20
2022-09-02T05:34:09.423Z,78.70
2022-09-02T05:39:05.338Z,78.40
2022-09-02T05:41:33.240Z,79.60
2022-09-02T05:44:03.931Z,74.90
2022-09-02T05:49:17.339Z,71.80
2022-09-02T05:51:55.021Z,66.00
2022-09-02T05:54:30.259Z,65.00
2022-09-02T05:57:08.802Z,66.70
2022-09-02T05:59:40.584Z,60.90
2022-09-02T06:02:12.830Z,63.10
2022-09-02T06:04:48.099Z,62.20
2022-09-02T06:07:21.084Z,55.70
2022-09-02T06:09:48.787Z,54.70
2022-09-02T06:12:21.010Z,51.40
2022-09-02T06:14:49.292Z,50.90
2022-09-02T06:17:19.057Z,54.30
2022-09-02T06:19:46.255Z,52.50
2022-09-02T06:27:08.560Z,50.80
2022-09-02T06:32:03.886Z,51.00
2022-09-02T06:36:59.276Z,49.20
2022-09-02T06:44:23.942Z,47.80
2022-09-02T06:47:01.073Z,49.40
2022-09-02T06:49:29.353Z,49.80
2022-09-02T06:52:00.055Z,46.50
2022-09-02T06:54:27.242Z,46.60
2022-09-02T06:56:55.315Z,43.90
2022-09-02T06:59:22.716Z,42.90
2022-09-02T07:01:50.531Z,44.40
2022-09-02T07:04:37.504Z,43.30
2022-09-02T07:07:08.294Z,41.90
2022-09-02T07:09:35.844Z,43.30
2022-09-02T07:12:05.280Z,43.00
2022-09-02T07:14:39.314Z,42.50
2022-09-02T07:17:07.775Z,42.90
2022-09-02T07:22:05.320Z,44.80
2022-09-02T07:31:55.180Z,39.90
2022-09-02T07:34:23.460Z,38.90
2022-09-02T07:39:21.507Z,38.00
2022-09-02T07:41:51.296Z,37.40
2022-09-02T07:44:21.584Z,37.90
2022-09-02T07:46:48.760Z,36.60
2022-09-02T07:49:20.853Z,34.80
2022-09-02T07:51:52.212Z,34.00
2022-09-02T07:54:24.796Z,35.60
2022-09-02T07:59:21.910Z,33.80
2022-09-02T08:01:49.395Z,34.10
2022-09-02T08:04:18.936Z,32.30
2022-09-02T08:06:46.291Z,33.20
2022-09-02T08:09:13.632Z,32.50
2022-09-02T08:11:46.172Z,31.20
2022-09-02T08:14:18.679Z,32.70
2022-09-02T08:16:48.203Z,32.60
2022-09-02T08:19:15.858Z,31.60
2022-09-02T08:21:42.922Z,33.40
2022-09-02T08:29:07.922Z,31.50
2022-09-02T08:31:38.522Z,30.60
2022-09-02T08:34:06.257Z,31.20
2022-09-02T08:39:04.492Z,32.70
2022-09-02T08:42:14.473Z,31.40
2022-09-02T08:44:42.069Z,32.70
2022-09-02T08:47:25.602Z,29.70
2022-09-02T08:50:01.283Z,30.20
2022-09-02T08:52:41.373Z,31.10
2022-09-02T08:55:16.816Z,31.30
2022-09-02T08:57:46.087Z,30.20
2022-09-02T09:00:14.386Z,29.90
2022-09-02T09:03:24.285Z,28.60
2022-09-02T09:06:19.200Z,28.70
2022-09-02T09:09:07.243Z,29.20
2022-09-02T09:11:45.379Z,30.60
2022-09-02T09:17:17.283Z,29.30
2022-09-02T09:20:00.667Z,27.40
2022-09-02T09:22:38.733Z,27.60
2022-09-02T09:25:15.665Z,28.90
2022-09-02T09:27:46.920Z,27.10
2022-09-02T09:30:15.668Z,28.00
2022-09-02T09:33:04.453Z,26.40
2022-09-02T09:36:03.797Z,27.50
2022-09-02T09:38:36.853Z,26.70
2022-09-02T09:41:15.459Z,27.30
2022-09-02T09:43:42.857Z,25.60
2022-09-02T09:46:32.341Z,26.50
2022-09-02T09:49:01.699Z,27.80
2022-09-02T09:54:16.365Z,26.10
2022-09-02T09:59:58.273Z,25.90
2022-09-02T10:02:29.034Z,26.30
2022-09-02T10:05:28.843Z,27.10
2022-09-02T10:08:15.655Z,26.60
2022-09-02T10:11:08.551Z,27.60
2022-09-02T10:13:38.362Z,27.00
2022-09-02T10:16:26.046Z,28.40
2022-09-02T10:19:10.967Z,28.10
2022-09-02T10:22:19.041Z,26.30
2022-09-02T10:25:05.147Z,27.20
2022-09-02T10:27:55.910Z,28.30
2022-09-02T10:30:25.268Z,29.40
2022-09-02T10:33:17.122Z,25.40
2022-09-02T10:35:59.651Z,27.00
2022-09-02T10:38:44.886Z,24.00
2022-09-02T10:47:21.388Z,25.10
2022-09-02T10:50:23.991Z,25.20
2022-09-02T10:53:32.061Z,26.00
2022-09-02T10:56:24.430Z,24.90
2022-09-02T10:59:05.712Z,25.10
2022-09-02T11:01:44.971Z,26.30
2022-09-02T11:04:54.993Z,26.30
2022-09-02T11:07:36.503Z,26.10
2022-09-02T11:10:28.789Z,29.20
2022-09-02T11:13:14.608Z,27.30
2022-09-02T11:16:06.896Z,29.50
2022-09-02T11:19:00.534Z,30.40
2022-09-02T11:24:46.504Z,29.40
2022-09-02T11:27:49.194Z,26.80
2022-09-02T11:30:28.578Z,26.50
2022-09-02T11:33:19.238Z,26.60
2022-09-02T11:35:46.468Z,27.20
2022-09-02T11:38:36.333Z,28.20
2022-09-02T11:41:39.030Z,28.90
2022-09-02T11:44:52.715Z,27.60
2022-09-02T11:47:26.156Z,28.50
2022-09-02T11:50:19.606Z,28.80
2022-09-02T11:55:37.419Z,30.10
2022-09-02T12:00:55.896Z,29.00
2022-09-02T12:03:41.177Z,28.70
2022-09-02T12:06:19.415Z,29.50
2022-09-02T12:08:48.936Z,31.20
2022-09-02T12:11:49.547Z,31.10
2022-09-02T12:14:46.202Z,30.80
2022-09-02T12:17:49.861Z,31.00
2022-09-02T12:20:39.360Z,29.60
2022-09-02T12:23:10.176Z,31.40
2022-09-02T12:25:49.535Z,31.40
2022-09-02T12:28:30.602Z,32.30
2022-09-02T12:31:07.883Z,32.20
2022-09-02T12:33:51.901Z,29.50
2022-09-02T12:36:37.018Z,31.00
2022-09-02T12:39:27.438Z,30.70
2022-09-02T12:41:58.122Z,30.70
2022-09-02T12:44:46.226Z,29.20
2022-09-02T12:47:29.482Z,30.00
2022-09-02T12:50:17.476Z,29.10
2022-09-02T12:53:33.115Z,29.00
2022-09-02T12:56:27.096Z,31.40
2022-09-02T12:59:01.592Z,28.70
2022-09-02T13:02:12.354Z,28.30
2022-09-02T13:05:01.756Z,28.20
2022-09-02T13:08:04.565Z,28.60
2022-09-02T13:10:56.325Z,29.30
2022-09-02T13:14:06.664Z,30.40
2022-09-02T13:16:47.267Z,30.10
2022-09-02T13:19:40.697Z,29.20
2022-09-02T13:25:01.462Z,34.90
2022-09-02T13:27:55.302Z,33.60
2022-09-02T13:30:53.392Z,33.90
2022-09-02T13:35:57.202Z,30.70
2022-09-02T13:38:27.354Z,30.20
2022-09-02T13:40:55.193Z,33.90
2022-09-02T13:43:27.561Z,33.00
2022-09-02T13:46:03.807Z,32.10
2022-09-02T13:48:39.804Z,34.30
2022-09-02T13:51:15.030Z,34.90
2022-09-02T14:01:40.066Z,34.20
2022-09-02T14:04:14.890Z,35.50
2022-09-02T14:06:46.582Z,34.60
2022-09-02T14:09:27.442Z,37.80
2022-09-02T14:11:56.783Z,37.80
2022-09-02T14:14:25.538Z,37.90
2022-09-02T14:17:13.105Z,33.20
2022-09-02T14:19:40.198Z,34.80
2022-09-02T14:22:22.660Z,33.50
2022-09-02T14:27:22.083Z,34.50
2022-09-02T14:29:58.599Z,30.90
2022-09-02T14:32:29.899Z,33.50
2022-09-02T14:35:22.361Z,33.70
2022-09-02T14:37:59.689Z,35.10
2022-09-02T14:40:40.745Z,34.40
2022-09-02T14:43:17.554Z,37.80
2022-09-02T14:45:49.800Z,33.90
2022-09-02T14:48:26.766Z,34.70
2022-09-02T14:51:07.349Z,37.50
2022-09-02T14:53:37.761Z,38.60
2022-09-02T14:56:08.850Z,34.10
2022-09-02T14:58:35.931Z,37.80
2022-09-02T15:03:37.609Z,39.50
2022-09-02T15:11:01.213Z,35.40
2022-09-02T15:13:34.959Z,39.10
2022-09-02T15:16:03.684Z,35.80
2022-09-02T15:20:58.559Z,38.20
2022-09-02T15:31:02.255Z,39.60
2022-09-02T15:33:30.308Z,43.30
2022-09-02T15:36:07.603Z,40.60
2022-09-02T15:38:36.177Z,42.20
2022-09-02T15:41:15.933Z,43.00
2022-09-02T15:43:44.450Z,42.70
2022-09-02T15:46:18.601Z,44.40
2022-09-02T15:48:46.216Z,44.80
2022-09-02T15:51:19.460Z,42.70
2022-09-02T15:56:23.021Z,42.30
2022-09-02T15:59:20.526Z,43.10
2022-09-02T16:01:50.628Z,43.00
2022-09-02T16:06:49.215Z,43.30
2022-09-02T16:09:17.966Z,44.30
2022-09-02T16:11:52.970Z,46.20
2022-09-02T16:14:22.236Z,44.00
2022-09-02T16:16:53.539Z,44.40
2022-09-02T16:19:23.054Z,45.10
2022-09-02T16:21:52.118Z,47.50
2022-09-02T16:24:21.625Z,45.40
2022-09-02T16:26:51.080Z,46.40
2022-09-02T16:32:02.284Z,48.10
2022-09-02T16:37:07.596Z,50.90
2022-09-02T16:49:29.082Z,52.00
2022-09-02T16:51:58.298Z,53.60
2022-09-02T16:54:31.374Z,50.60
2022-09-02T16:57:01.580Z,50.70
2022-09-02T17:09:24.131Z,55.10
2022-09-02T17:16:51.523Z,53.90
2022-09-02T17:19:24.471Z,57.30
2022-09-02T17:21:55.333Z,57.60
2022-09-02T17:24:27.946Z,55.20
2022-09-02T17:26:56.493Z,56.60
2022-09-02T17:29:48.822Z,57.00
2022-09-02T17:37:12.271Z,62.90
2022-09-02T17:39:39.597Z,61.70
2022-09-02T17:42:07.194Z,61.60
2022-09-02T17:44:41.645Z,60.80
2022-09-02T17:47:20.238Z,63.80
2022-09-02T17:52:19.953Z,64.40
2022-09-02T17:54:50.883Z,61.10
2022-09-02T18:00:26.688Z,62.90
2022-09-02T18:03:29.297Z,67.10
2022-09-02T18:06:26.179Z,68.10
2022-09-02T18:09:04.385Z,69.70
2022-09-02T18:14:40.852Z,66.50
2022-09-02T18:17:32.420Z,70.30
2022-09-02T18:20:17.078Z,71.40
2022-09-02T18:23:04.909Z,66.90
2022-09-02T18:25:49.445Z,67.20
2022-09-02T18:28:51.097Z,72.10
2022-09-02T18:31:42.841Z,69.20
2022-09-02T18:34:52.300Z,69.70
2022-09-02T18:37:45.621Z,75.80
2022-09-02T18:41:00.118Z,71.30
2022-09-02T18:44:01.332Z,71.90
2022-09-02T18:46:45.172Z,71.80
2022-09-02T18:49:15.837Z,78.00
2022-09-02T18:51:45.416Z,72.80
2022-09-02T18:54:26.773Z,80.00
2022-09-02T18:57:03.879Z,79.10
2022-09-02T19:00:09.869Z,81.10
2022-09-02T19:05:29.612Z,81.40
2022-09-02T19:08:33.210Z,78.00
2022-09-02T19:11:14.298Z,82.40
2022-09-02T19:14:11.756Z,79.40
2022-09-02T19:16:39.062Z,85.00
2022-09-02T19:22:11.415Z,87.50
2022-09-02T19:24:47.973Z,82.50
2022-09-02T19:27:24.356Z,82.00
2022-09-02T19:30:03.543Z,88.10
2022-09-02T19:32:36.608Z,82.70
2022-09-02T19:35:16.757Z,89.70
2022-09-02T19:37:51.284Z,83.80
2022-09-02T19:40:36.950Z,89.50
2022-09-02T19:43:07.727Z,85.10
2022-09-02T19:45:37.539Z,89.90
2022-09-02T19:48:11.347Z,85.00
2022-09-02T19:50:44.625Z,86.20
2022-09-02T19:53:22.473Z,86.20
2022-09-02T19:55:51.167Z,90.90
2022-09-02T20:00:47.249Z,90.90
2022-09-02T20:05:43.053Z,91.70
2022-09-02T20:08:10.299Z,91.40
2022-09-02T20:10:39.751Z,87.50
2022-09-02T20:13:13.787Z,88.20
2022-09-02T20:18:15.573Z,88.50
2022-09-02T20:20:45.980Z,89.20
2022-09-02T20:23:17.397Z,89.80
2022-09-02T20:26:41.027Z,90.10
2022-09-02T20:29:43.158Z,90.40
2022-09-02T20:32:44.027Z,93.80
2022-09-02T20:35:44.743Z,91.50
2022-09-02T20:38:44.084Z,91.70
2022-09-02T20:41:39.838Z,91.80
2022-09-02T20:44:38.982Z,92.10
2022-09-02T20:47:58.489Z,93.00
2022-09-02T20:51:02.345Z,96.50
2022-09-02T20:53:54.827Z,97.00
2022-09-02T20:57:24.463Z,99.00
2022-09-02T21:02:59.093Z,98.50
2022-09-02T21:05:34.112Z,99.60
2022-09-02T21:08:24.563Z,97.30
2022-09-02T21:11:01.113Z,97.00
2022-09-02T21:13:34.004Z,99.80
2022-09-02T21:16:12.641Z,97.70
2022-09-02T21:19:12.991Z,99.90
2022-09-02T21:22:23.287Z,98.10
2022-09-02T21:25:00.965Z,99.90
2022-09-02T21:30:22.130Z,99.90
2022-09-02T21:33:02.080Z,99.10
2022-09-02T21:35:50.444Z,99.90
2022-09-02T21:38:31.718Z,99.70
2022-09-02T21:41:22.823Z,99.90
2022-09-02T21:44:12.249Z,99.90
2022-09-02T21:47:16.986Z,99.90
2022-09-02T21:49:50.117Z,99.90
2022-09-02T21:52:49.809Z,99.90
2022-09-02T21:55:38.288Z,99.90
2022-09-02T22:00:51.140Z,99.90
2022-09-02T22:03:42.198Z,99.90
2022-09-02T22:09:03.467Z,99.90
2022-09-02T22:11:40.436Z,99.90
2022-09-02T22:14:56.249Z,99.90
2022-09-02T22:17:53.271Z,99.90
2022-09-02T22:20:31.446Z,99.90
2022-09-02T22:23:15.729Z,99.90
2022-09-02T22:25:43.932Z,99.90
2022-09-02T22:28:35.271Z,99.90
2022-09-02T22:31:11.230Z,99.90
2022-09-02T22:33:51.521Z,99.90
2022-09-02T22:37:09.803Z,99.90
2022-09-02T22:39:54.085Z,99.90
2022-09-02T22:42:39.528Z,99.90
2022-09-02T22:48:45.634Z,99.90
2022-09-02T22:51:51.686Z,99.90
2022-09-02T22:54:19.995Z,99.90
2022-09-02T22:57:08.143Z,99.90
2022-09-02T23:00:16.961Z,99.90
2022-09-02T23:03:05.375Z,99.90
2022-09-02T23:06:13.687Z,99.90
2022-09-02T23:08:44.666Z,99.90
2022-09-02T23:11:28.124Z,99.90
2022-09-02T23:14:26.636Z,99.90
2022-09-02T23:17:06.931Z,99.90
2022-09-02T23:20:10.977Z,99.90
2022-09-02T23:23:09.430Z,99.90
2022-09-02T23:26:03.972Z,99.90
2022-09-02T23:29:00.486Z,99.90
2022-09-02T23:32:05.147Z,99.90
2022-09-02T23:34:51.659Z,99.90
2022-09-02T23:40:51.087Z,99.90
2022-09-02T23:45:48.516Z,99.90
2022-09-02T23:48:46.369Z,99.90
2022-09-02T23:52:01.460Z,99.90
2022-09-02T23:57:21.892Z,99.90
